Time;durP1;ratioP1;P1;durP2;ratioP2;P2;SDS_P1;SDS_P2;PMS_P1;PMS_P2;Temp;Humidity;BMP_temperature;BMP_pressure;BME280_temperature;BME280_humidity;BME280_pressure;Samples;Min_cycle;Max_cycle;Signal;HPM_P1;HPM_P2
2022/05/26 00:00:14;;;;;;;1.10;0.90;;;26.10;51.50;;;;;;5116651;28;20428;-85
2022/05/26 00:02:41;;;;;;;1.10;0.90;;;26.10;51.50;;;;;;5119694;28;20910;-85
2022/05/26 00:05:10;;;;;;;1.10;1.00;;;26.00;51.40;;;;;;5118815;28;20423;-85
2022/05/26 00:07:36;;;;;;;1.10;0.87;;;26.10;51.50;;;;;;5118513;28;20419;-85
2022/05/26 00:10:02;;;;;;;1.33;1.10;;;26.10;51.60;;;;;;5118508;28;20417;-85
2022/05/26 00:12:32;;;;;;;1.40;0.90;;;26.00;51.50;;;;;;5118446;28;20238;-85
2022/05/26 00:14:58;;;;;;;1.50;1.00;;;26.10;51.50;;;;;;5119422;28;20387;-85
2022/05/26 00:17:24;;;;;;;1.10;0.90;;;26.00;51.50;;;;;;5118993;28;20857;-85
2022/05/26 00:19:53;;;;;;;1.30;1.10;;;26.00;51.50;;;;;;5118117;28;20419;-85
2022/05/26 00:22:25;;;;;;;1.10;0.97;;;26.00;51.50;;;;;;5118444;28;20399;-86
2022/05/26 00:25:09;;;;;;;1.00;0.90;;;26.00;51.50;;;;;;5119717;28;20483;-85
2022/05/26 00:27:36;;;;;;;1.00;0.90;;;26.00;51.50;;;;;;5118253;28;20407;-85
2022/05/26 00:30:02;;;;;;;1.20;1.00;;;26.00;51.50;;;;;;5118038;28;20414;-85
2022/05/26 00:32:34;;;;;;;1.27;1.00;;;26.00;51.50;;;;;;5133576;28;20493;-85
2022/05/26 00:35:04;;;;;;;1.10;1.00;;;26.00;51.60;;;;;;5134893;28;20391;-85
2022/05/26 00:37:31;;;;;;;1.03;0.90;;;26.00;51.50;;;;;;5117644;28;20963;-85
2022/05/26 00:40:00;;;;;;;1.10;1.00;;;26.00;51.50;;;;;;5135454;28;20411;-85
2022/05/26 00:42:26;;;;;;;1.23;1.03;;;26.00;51.50;;;;;;5117858;28;20411;-85
2022/05/26 00:44:55;;;;;;;1.37;0.70;;;26.00;51.60;;;;;;5135491;28;20434;-85
2022/05/26 00:47:24;;;;;;;1.03;0.80;;;26.00;51.60;;;;;;5100562;28;20244;-85
2022/05/26 00:50:15;;;;;;;1.00;0.80;;;26.00;51.50;;;;;;5135406;28;20418;-84
2022/05/26 00:52:52;;;;;;;1.30;0.97;;;26.00;52.10;;;;;;5134809;28;20426;-85
2022/05/26 00:55:34;;;;;;;1.33;1.10;;;26.00;51.60;;;;;;5084228;28;20428;-84
2022/05/26 00:58:17;;;;;;;1.10;0.87;;;26.00;51.60;;;;;;5117877;28;20418;-84
2022/05/26 01:00:46;;;;;;;1.00;0.90;;;26.00;51.60;;;;;;5102623;28;20428;-84
2022/05/26 01:03:36;;;;;;;1.00;0.80;;;26.00;51.60;;;;;;5134136;28;20470;-84
2022/05/26 01:06:20;;;;;;;1.13;0.87;;;26.00;51.60;;;;;;5117274;28;20402;-84
2022/05/26 01:08:55;;;;;;;1.07;0.93;;;26.00;51.60;;;;;;5117286;28;20411;-85
2022/05/26 01:11:24;;;;;;;1.10;0.97;;;26.00;51.60;;;;;;5134268;28;20465;-85
2022/05/26 01:14:05;;;;;;;1.67;1.20;;;26.00;51.70;;;;;;5133923;28;20470;-85
2022/05/26 01:17:04;;;;;;;1.30;1.03;;;26.00;51.60;;;;;;5134096;28;20415;-85
2022/05/26 01:20:00;;;;;;;1.00;0.90;;;26.00;51.60;;;;;;5116922;28;20404;-85
2022/05/26 01:23:14;;;;;;;1.20;0.90;;;26.00;51.70;;;;;;5133646;28;20421;-85
2022/05/26 01:25:58;;;;;;;1.30;1.00;;;26.00;52.20;;;;;;5134295;28;20391;-85
2022/05/26 01:28:46;;;;;;;1.60;1.10;;;25.90;51.70;;;;;;5134061;28;20428;-86
2022/05/26 01:31:51;;;;;;;1.47;1.10;;;25.90;51.70;;;;;;5134427;28;20454;-85
2022/05/26 01:34:30;;;;;;;1.20;0.90;;;25.90;51.70;;;;;;5133405;28;20410;-84
2022/05/26 01:37:16;;;;;;;1.20;1.00;;;25.90;51.70;;;;;;5116513;28;20407;-84
2022/05/26 01:39:59;;;;;;;1.20;1.00;;;25.90;51.70;;;;;;5134944;28;20395;-84
2022/05/26 01:42:32;;;;;;;1.00;0.90;;;25.90;51.70;;;;;;5134191;28;20395;-84
2022/05/26 01:45:16;;;;;;;1.10;1.00;;;25.90;51.70;;;;;;5134808;28;20387;-84
2022/05/26 01:48:01;;;;;;;1.60;1.20;;;25.90;51.70;;;;;;5136052;28;20433;-84
2022/05/26 01:50:42;;;;;;;1.10;1.00;;;25.90;51.70;;;;;;5136683;28;20474;-84
2022/05/26 01:53:33;;;;;;;1.20;1.10;;;25.90;51.70;;;;;;5135670;28;20410;-84
2022/05/26 01:56:22;;;;;;;1.10;0.90;;;25.90;51.70;;;;;;5136033;28;20413;-85
2022/05/26 01:59:21;;;;;;;1.10;0.90;;;25.90;51.70;;;;;;5133776;28;20415;-84
2022/05/26 02:01:54;;;;;;;0.97;0.83;;;25.90;51.70;;;;;;5104740;28;20957;-84
2022/05/26 02:04:39;;;;;;;1.13;0.90;;;25.90;51.70;;;;;;5100400;28;20438;-84
2022/05/26 02:07:22;;;;;;;1.10;1.00;;;25.90;51.70;;;;;;5115927;28;20410;-85
2022/05/26 02:09:55;;;;;;;1.27;0.90;;;25.90;51.80;;;;;;5115579;28;20506;-85
2022/05/26 02:12:35;;;;;;;1.00;0.80;;;25.90;51.80;;;;;;5114570;28;20473;-85
2022/05/26 02:15:27;;;;;;;1.00;0.80;;;25.90;51.70;;;;;;5116085;28;20418;-85
2022/05/26 02:18:05;;;;;;;1.30;1.10;;;26.00;51.80;;;;;;5114401;28;20410;-85
2022/05/26 02:20:39;;;;;;;1.10;0.80;;;25.90;51.70;;;;;;5102102;28;20394;-86
2022/05/26 02:23:16;;;;;;;1.00;0.80;;;25.90;51.70;;;;;;5133753;28;20395;-85
2022/05/26 02:25:42;;;;;;;1.10;1.00;;;25.90;51.70;;;;;;5134301;28;20391;-85
2022/05/26 02:28:12;;;;;;;1.17;0.80;;;25.90;51.70;;;;;;5116983;28;20411;-86
2022/05/26 02:30:41;;;;;;;1.37;0.90;;;25.90;51.70;;;;;;5133828;28;20443;-86
2022/05/26 02:33:11;;;;;;;2.30;0.90;;;25.90;52.30;;;;;;5098937;28;20418;-86
2022/05/26 02:36:03;;;;;;;1.07;0.97;;;25.90;51.70;;;;;;5133229;28;20478;-85
2022/05/26 02:38:29;;;;;;;1.10;1.00;;;25.90;51.70;;;;;;5134008;28;20413;-85
2022/05/26 02:40:56;;;;;;;1.30;1.00;;;25.90;51.80;;;;;;5134735;28;20424;-86
2022/05/26 02:43:29;;;;;;;1.17;0.73;;;25.90;51.70;;;;;;5134408;28;20412;-85
2022/05/26 02:46:18;;;;;;;1.10;0.80;;;25.90;51.80;;;;;;5116280;28;20438;-85
2022/05/26 02:49:08;;;;;;;1.20;1.10;;;25.90;51.70;;;;;;5034860;28;20411;-85
2022/05/26 02:51:58;;;;;;;0.93;0.80;;;25.90;51.80;;;;;;5051357;28;20521;-84
2022/05/26 02:54:45;;;;;;;1.10;1.00;;;25.90;51.80;;;;;;5021344;28;20415;-85
2022/05/26 02:57:27;;;;;;;1.13;0.97;;;25.90;51.80;;;;;;5038905;28;20417;-85
2022/05/26 03:00:18;;;;;;;1.03;0.90;;;25.90;51.80;;;;;;5040704;28;20449;-85
2022/05/26 03:03:16;;;;;;;1.10;0.83;;;25.90;51.80;;;;;;5070893;28;20426;-84
2022/05/26 03:06:02;;;;;;;1.00;0.80;;;25.90;51.80;;;;;;5044696;28;20401;-85
2022/05/26 03:08:33;;;;;;;1.00;0.80;;;25.90;51.80;;;;;;5066077;28;20417;-85
2022/05/26 03:11:07;;;;;;;1.10;0.80;;;25.90;51.80;;;;;;5056759;28;20477;-85
2022/05/26 03:13:33;;;;;;;1.07;0.80;;;25.90;51.80;;;;;;5038574;28;20417;-85
2022/05/26 03:16:00;;;;;;;0.90;0.77;;;25.90;51.80;;;;;;5069563;28;20495;-85
2022/05/26 03:18:26;;;;;;;1.10;0.80;;;25.90;51.80;;;;;;5053913;28;20415;-85
2022/05/26 03:20:51;;;;;;;1.20;0.70;;;25.90;51.80;;;;;;5062166;28;20475;-85
2022/05/26 03:23:17;;;;;;;1.03;0.80;;;25.90;51.80;;;;;;5053616;28;20196;-85
2022/05/26 03:25:45;;;;;;;1.40;0.97;;;25.90;51.80;;;;;;5080226;28;20423;-85
2022/05/26 03:28:13;;;;;;;0.93;0.80;;;25.90;51.80;;;;;;5090399;28;20423;-85
2022/05/26 03:30:40;;;;;;;1.00;0.90;;;25.90;51.80;;;;;;5134198;28;20458;-85
2022/05/26 03:33:06;;;;;;;0.90;0.80;;;25.90;51.80;;;;;;5120915;28;20403;-85
2022/05/26 03:41:01;;;;;;;0.90;0.70;;;25.90;51.80;;;;;;5136788;28;20489;-86
2022/05/26 03:43:37;;;;;;;1.17;0.97;;;25.90;51.80;;;;;;5135905;28;20407;-85
2022/05/26 03:46:04;;;;;;;1.30;1.00;;;25.90;51.80;;;;;;5112244;28;20437;-86
2022/05/26 03:48:33;;;;;;;1.10;0.83;;;25.80;51.80;;;;;;5136438;28;20414;-85
2022/05/26 03:50:59;;;;;;;0.90;0.80;;;25.90;51.80;;;;;;5118879;28;20461;-85
2022/05/26 03:53:25;;;;;;;1.20;0.97;;;25.90;51.80;;;;;;5118103;28;20423;-85
2022/05/26 03:55:52;;;;;;;1.00;0.77;;;25.90;51.80;;;;;;5136478;28;20402;-85
2022/05/26 03:58:18;;;;;;;1.03;0.70;;;25.90;51.80;;;;;;5117657;28;20411;-85
2022/05/26 04:00:44;;;;;;;1.00;0.90;;;25.90;51.80;;;;;;5118088;28;20518;-85
2022/05/26 04:03:13;;;;;;;1.10;0.80;;;25.90;51.90;;;;;;5117972;28;20179;-85
2022/05/26 04:05:41;;;;;;;1.10;0.87;;;25.90;51.80;;;;;;5136535;28;20414;-85
2022/05/26 04:08:08;;;;;;;1.10;1.00;;;25.90;51.80;;;;;;5136171;28;20422;-85
2022/05/26 04:10:37;;;;;;;1.00;0.90;;;25.90;51.90;;;;;;5118334;28;20435;-85
2022/05/26 04:13:03;;;;;;;1.20;0.93;;;25.90;51.80;;;;;;5136045;28;20432;-85
2022/05/26 04:15:29;;;;;;;1.00;0.80;;;25.90;51.80;;;;;;5116160;28;20406;-84
2022/05/26 04:17:55;;;;;;;1.30;0.80;;;25.90;51.80;;;;;;5132477;28;20463;-84
2022/05/26 04:20:24;;;;;;;1.00;0.80;;;25.90;51.80;;;;;;5132835;28;20399;-84
2022/05/26 04:22:50;;;;;;;1.20;0.90;;;25.90;51.80;;;;;;5132785;28;20559;-84
2022/05/26 04:25:18;;;;;;;1.00;0.80;;;25.90;51.80;;;;;;5131294;28;20482;-84
2022/05/26 04:27:46;;;;;;;1.10;0.70;;;25.90;51.80;;;;;;5113819;28;20444;-84
2022/05/26 04:30:12;;;;;;;1.37;1.00;;;25.90;51.90;;;;;;5131440;28;20460;-84
2022/05/26 04:32:39;;;;;;;1.13;0.80;;;25.90;51.90;;;;;;5132057;28;20454;-84
2022/05/26 04:35:07;;;;;;;1.10;0.90;;;25.90;51.90;;;;;;5132871;27;20979;-83
2022/05/26 04:37:37;;;;;;;1.00;0.80;;;25.90;51.90;;;;;;5133513;27;20494;-84
2022/05/26 04:40:10;;;;;;;0.90;0.77;;;25.90;51.90;;;;;;5117209;28;20426;-84
2022/05/26 04:42:38;;;;;;;1.10;0.80;;;25.90;51.90;;;;;;5100557;28;20437;-86
2022/05/26 04:45:05;;;;;;;0.90;0.70;;;25.90;51.90;;;;;;5117366;28;20454;-85
2022/05/26 04:47:31;;;;;;;0.90;0.80;;;25.90;51.90;;;;;;5135362;27;20431;-84
2022/05/26 04:49:57;;;;;;;1.10;0.87;;;25.90;51.90;;;;;;5135224;27;20990;-83
2022/05/26 04:52:24;;;;;;;1.00;0.83;;;25.90;51.80;;;;;;5114377;28;20540;-83
2022/05/26 04:54:52;;;;;;;1.20;1.00;;;25.90;51.80;;;;;;5114789;28;20506;-84
2022/05/26 04:57:24;;;;;;;1.10;1.00;;;25.90;51.80;;;;;;5116752;27;20422;-84
2022/05/26 04:59:51;;;;;;;1.10;0.90;;;26.00;51.90;;;;;;5114950;28;20430;-84
2022/05/26 05:02:18;;;;;;;1.20;1.00;;;26.00;51.90;;;;;;5115493;27;20418;-84
2022/05/26 05:04:48;;;;;;;1.00;0.80;;;26.00;51.90;;;;;;5115996;28;20938;-84
2022/05/26 05:07:15;;;;;;;1.13;0.90;;;26.00;51.90;;;;;;5131706;28;20414;-84
2022/05/26 05:09:42;;;;;;;0.90;0.70;;;26.00;51.90;;;;;;5113900;28;20427;-84
2022/05/26 05:12:12;;;;;;;0.90;0.70;;;26.00;51.90;;;;;;5131413;28;20458;-84
2022/05/26 05:14:42;;;;;;;1.10;0.90;;;26.00;51.90;;;;;;5113300;28;20443;-84
2022/05/26 05:17:08;;;;;;;1.00;0.80;;;26.00;51.90;;;;;;5113362;28;20425;-84
2022/05/26 05:19:34;;;;;;;1.10;0.80;;;26.00;51.90;;;;;;5130953;28;20474;-84
2022/05/26 05:22:40;;;;;;;1.43;1.00;;;26.00;51.90;;;;;;5130660;28;20414;-84
2022/05/26 05:25:18;;;;;;;1.00;0.80;;;26.00;51.90;;;;;;5110385;28;20218;-84
2022/05/26 05:27:45;;;;;;;0.90;0.70;;;26.00;51.90;;;;;;5129469;28;20430;-84
2022/05/26 05:30:25;;;;;;;1.10;0.87;;;26.00;51.90;;;;;;5130290;28;20447;-84
2022/05/26 05:33:06;;;;;;;1.30;0.90;;;26.00;51.90;;;;;;5129466;28;20406;-84
2022/05/26 05:35:39;;;;;;;0.93;0.80;;;26.00;51.90;;;;;;5111853;28;20418;-84
2022/05/26 05:38:05;;;;;;;1.33;1.20;;;26.00;51.90;;;;;;5130554;28;20407;-85
2022/05/26 05:40:31;;;;;;;1.03;0.83;;;26.00;51.90;;;;;;5110041;28;20959;-85
2022/05/26 05:42:58;;;;;;;1.03;0.80;;;26.00;51.90;;;;;;5129829;28;20173;-84
2022/05/26 05:45:24;;;;;;;1.27;0.90;;;26.00;51.90;;;;;;5112294;28;20541;-84
2022/05/26 05:47:50;;;;;;;0.90;0.70;;;26.00;51.90;;;;;;5112366;28;20426;-84
2022/05/26 05:50:16;;;;;;;1.20;0.80;;;26.10;51.90;;;;;;5112619;28;20185;-84
2022/05/26 05:52:42;;;;;;;1.00;0.80;;;26.10;51.90;;;;;;5111811;28;20205;-84
2022/05/26 05:55:08;;;;;;;1.30;0.93;;;26.10;51.90;;;;;;5130219;28;20204;-84
2022/05/26 05:57:34;;;;;;;1.27;0.90;;;26.10;51.90;;;;;;5111046;28;20482;-83
2022/05/26 06:00:06;;;;;;;1.20;1.10;;;26.10;51.90;;;;;;5110832;28;20442;-82
2022/05/26 06:02:35;;;;;;;0.93;0.80;;;26.10;51.90;;;;;;5127811;28;20185;-82
2022/05/26 06:05:03;;;;;;;1.00;0.90;;;26.10;51.90;;;;;;5129043;27;20431;-82
2022/05/26 06:07:28;;;;;;;1.00;0.90;;;26.10;51.90;;;;;;5112892;28;20422;-84
2022/05/26 06:09:56;;;;;;;0.93;0.70;;;26.10;51.90;;;;;;5130713;28;20448;-84
2022/05/26 06:12:22;;;;;;;1.30;1.00;;;26.10;51.90;;;;;;5131504;28;20222;-84
2022/05/26 06:14:49;;;;;;;1.30;0.90;;;26.10;51.90;;;;;;5114229;28;20433;-84
2022/05/26 06:17:17;;;;;;;1.67;0.90;;;26.10;51.90;;;;;;5113846;28;20472;-84
2022/05/26 06:19:44;;;;;;;0.90;0.80;;;26.10;51.90;;;;;;5114828;28;20414;-85
2022/05/26 06:22:17;;;;;;;1.13;0.97;;;26.10;51.90;;;;;;5131784;28;20425;-83
2022/05/26 06:24:43;;;;;;;1.00;0.80;;;26.10;51.90;;;;;;5130281;28;20431;-84
2022/05/26 06:29:59;;;;;;;1.00;0.80;;;26.10;51.90;;;;;;5131229;28;20433;-84
2022/05/26 06:38:00;;;;;;;1.20;1.10;;;26.10;51.90;;;;;;5134773;28;20483;-84
2022/05/26 06:40:28;;;;;;;2.07;0.90;;;26.10;51.90;;;;;;5117100;28;20431;-83
2022/05/26 06:42:55;;;;;;;1.27;0.80;;;26.10;51.90;;;;;;5116073;28;20439;-84
2022/05/26 06:45:22;;;;;;;1.90;1.00;;;26.10;51.90;;;;;;5116206;28;20419;-84
2022/05/26 06:47:48;;;;;;;1.10;0.90;;;26.10;51.90;;;;;;5115941;28;20418;-84
2022/05/26 06:50:15;;;;;;;1.00;0.80;;;26.10;51.90;;;;;;5134271;28;20406;-84
2022/05/26 06:52:41;;;;;;;1.50;0.97;;;26.10;51.90;;;;;;5115448;28;20462;-84
2022/05/26 06:55:08;;;;;;;1.10;0.87;;;26.10;51.90;;;;;;5116285;28;20773;-84
2022/05/26 06:57:34;;;;;;;0.97;0.73;;;26.10;51.90;;;;;;5116541;28;20515;-85
2022/05/26 07:00:00;;;;;;;1.10;0.83;;;26.10;51.90;;;;;;5134107;28;20482;-84
2022/05/26 07:02:28;;;;;;;1.37;0.80;;;26.10;51.90;;;;;;5115004;28;20418;-85
2022/05/26 07:04:54;;;;;;;0.90;0.70;;;26.10;51.90;;;;;;5132685;28;20407;-82
2022/05/26 07:07:20;;;;;;;1.13;0.80;;;26.10;51.90;;;;;;5117480;27;20461;-83
2022/05/26 07:09:46;;;;;;;1.20;0.87;;;26.10;51.90;;;;;;5120329;28;20462;-84
2022/05/26 07:12:12;;;;;;;1.30;0.90;;;26.10;51.90;;;;;;5114607;28;20462;-85
2022/05/26 07:14:38;;;;;;;1.20;0.80;;;26.10;51.90;;;;;;5117221;28;20177;-85
2022/05/26 07:17:06;;;;;;;1.10;0.90;;;26.10;51.90;;;;;;5137330;27;20406;-85
2022/05/26 07:19:33;;;;;;;1.00;0.80;;;26.10;52.00;;;;;;5131217;27;20430;-84
2022/05/26 07:21:59;;;;;;;1.13;0.80;;;26.10;52.00;;;;;;5139694;27;20451;-85
2022/05/26 07:24:43;;;;;;;1.00;0.70;;;26.10;52.00;;;;;;5136777;27;20444;-84
2022/05/26 07:27:08;;;;;;;1.03;0.80;;;26.10;52.00;;;;;;5112017;28;20183;-84
2022/05/26 07:29:35;;;;;;;1.63;0.87;;;26.10;52.00;;;;;;5114436;28;20479;-84
2022/05/26 07:32:01;;;;;;;6.30;1.10;;;26.10;52.00;;;;;;5118911;28;20206;-84
2022/05/26 07:34:28;;;;;;;1.20;0.90;;;26.10;52.00;;;;;;5111918;28;20900;-83
2022/05/26 07:42:31;;;;;;;1.13;1.00;;;26.10;52.00;;;;;;5136634;27;20409;-84
2022/05/26 07:44:58;;;;;;;1.03;0.80;;;26.10;52.10;;;;;;5114201;28;20411;-85
2022/05/26 07:47:26;;;;;;;0.93;0.63;;;26.10;52.10;;;;;;5131645;28;20852;-84
2022/05/26 07:49:52;;;;;;;1.50;0.87;;;26.10;52.10;;;;;;5132270;28;20443;-84
2022/05/26 07:52:21;;;;;;;0.93;0.80;;;26.10;52.10;;;;;;5114210;28;20458;-84
2022/05/26 07:54:47;;;;;;;1.50;0.90;;;26.10;52.10;;;;;;5114115;28;20180;-83
2022/05/26 07:57:31;;;;;;;1.20;1.00;;;26.10;52.10;;;;;;5113899;28;20482;-83
2022/05/26 07:59:58;;;;;;;1.00;0.80;;;26.10;52.10;;;;;;5113160;28;20196;-84
2022/05/26 08:02:24;;;;;;;1.00;0.80;;;26.10;52.10;;;;;;5113055;28;20491;-83
2022/05/26 08:04:50;;;;;;;0.90;0.80;;;26.10;52.10;;;;;;5130735;28;20431;-82
2022/05/26 08:07:18;;;;;;;1.83;0.80;;;26.10;52.10;;;;;;5130352;28;20912;-83
2022/05/26 08:09:44;;;;;;;1.00;0.87;;;26.10;52.10;;;;;;5113339;28;20508;-84
2022/05/26 08:12:12;;;;;;;1.10;0.87;;;26.10;52.10;;;;;;5130743;28;20462;-84
2022/05/26 08:14:39;;;;;;;1.10;0.93;;;26.10;52.10;;;;;;5131360;28;20184;-84
2022/05/26 08:17:05;;;;;;;1.33;1.00;;;26.10;52.10;;;;;;5113743;28;20415;-84
2022/05/26 08:19:32;;;;;;;1.00;0.87;;;26.10;52.10;;;;;;5113721;28;20411;-85
2022/05/26 08:21:58;;;;;;;0.90;0.70;;;26.10;52.10;;;;;;5132082;27;20411;-84
2022/05/26 08:24:26;;;;;;;0.80;0.70;;;26.10;52.10;;;;;;5115150;27;20427;-85
2022/05/26 08:26:52;;;;;;;1.77;1.00;;;26.10;52.10;;;;;;5117010;28;20442;-85
2022/05/26 08:29:18;;;;;;;2.00;0.80;;;26.10;52.10;;;;;;5118370;27;20411;-84
2022/05/26 08:31:45;;;;;;;1.00;0.83;;;26.10;52.10;;;;;;5117027;28;20454;-84
2022/05/26 08:34:13;;;;;;;3.00;1.00;;;26.10;52.10;;;;;;5117829;27;20434;-84
2022/05/26 08:36:39;;;;;;;1.17;0.80;;;26.10;52.10;;;;;;5101705;28;20415;-86
2022/05/26 08:39:05;;;;;;;1.10;0.80;;;26.10;52.10;;;;;;5135360;27;20417;-86
2022/05/26 08:41:36;;;;;;;1.27;0.80;;;26.10;52.10;;;;;;5133127;27;20181;-84
2022/05/26 08:44:10;;;;;;;1.20;0.80;;;26.10;52.10;;;;;;5117570;27;20478;-86
2022/05/26 08:47:01;;;;;;;1.10;0.93;;;26.10;52.20;;;;;;5128706;27;20423;-86
2022/05/26 08:50:01;;;;;;;0.90;0.73;;;26.10;52.10;;;;;;5116711;27;20422;-86
2022/05/26 08:52:34;;;;;;;1.00;0.70;;;26.10;52.10;;;;;;5115580;27;20479;-86
2022/05/26 08:55:03;;;;;;;1.30;0.80;;;26.10;52.20;;;;;;5133654;27;20478;-85
2022/05/26 08:57:52;;;;;;;1.00;0.80;;;26.10;52.20;;;;;;5114257;27;20472;-85
2022/05/26 09:00:23;;;;;;;1.10;1.00;;;26.10;52.20;;;;;;5132293;27;20444;-86
2022/05/26 09:02:58;;;;;;;1.20;0.80;;;26.10;52.20;;;;;;5115661;28;20457;-85
2022/05/26 09:05:30;;;;;;;1.20;0.90;;;26.10;52.20;;;;;;5100089;27;20444;-85
2022/05/26 09:13:59;;;;;;;0.90;0.80;;;26.10;52.20;;;;;;5131208;27;20414;-86
2022/05/26 09:19:15;;;;;;;0.90;0.70;;;26.10;52.20;;;;;;5678298;22;20518;-85
2022/05/26 09:21:42;;;;;;;0.90;0.70;;;26.10;52.20;;;;;;5066786;28;20438;-85
2022/05/26 09:31:21;;;;;;;1.33;1.00;;;26.10;52.20;;;;;;5008624;28;20561;-85
2022/05/26 09:42:43;;;;;;;1.20;0.90;;;26.00;52.20;;;;;;5068153;22;20502;-83
2022/05/26 09:52:18;;;;;;;1.20;0.80;;;26.00;52.20;;;;;;5048601;28;20862;-82
2022/05/26 09:54:49;;;;;;;0.97;0.70;;;26.00;52.30;;;;;;5053224;28;20391;-83
2022/05/26 09:57:28;;;;;;;0.90;0.70;;;26.00;52.30;;;;;;5015833;28;20490;-84
2022/05/26 09:59:57;;;;;;;1.10;0.90;;;26.00;52.20;;;;;;5049337;28;20402;-84
2022/05/26 10:02:39;;;;;;;0.90;0.70;;;26.00;52.30;;;;;;5031849;28;20422;-84
2022/05/26 10:05:16;;;;;;;1.00;0.80;;;26.00;52.20;;;;;;5031283;28;20446;-84
2022/05/26 10:07:48;;;;;;;1.20;0.70;;;26.00;52.20;;;;;;5048603;28;20426;-84
2022/05/26 10:10:31;;;;;;;1.40;0.80;;;26.00;52.20;;;;;;5031574;28;20920;-84
2022/05/26 10:13:36;;;;;;;1.00;0.80;;;26.00;52.80;;;;;;5031971;28;20418;-84
2022/05/26 10:16:11;;;;;;;0.90;0.70;;;26.10;52.30;;;;;;5031494;28;20414;-84
2022/05/26 10:19:07;;;;;;;0.90;0.80;;;26.00;52.30;;;;;;5031526;28;20406;-85
2022/05/26 10:22:00;;;;;;;1.07;0.77;;;26.10;52.30;;;;;;5016280;28;20464;-84
2022/05/26 10:24:54;;;;;;;1.60;0.87;;;26.00;52.30;;;;;;5011399;28;20415;-84
2022/05/26 10:27:58;;;;;;;1.23;0.80;;;26.00;52.20;;;;;;5029477;28;20423;-84
2022/05/26 10:30:42;;;;;;;1.20;0.70;;;26.00;52.30;;;;;;5028688;28;20426;-84
2022/05/26 10:33:30;;;;;;;1.00;0.80;;;26.00;52.30;;;;;;5012297;28;20518;-84
2022/05/26 10:36:14;;;;;;;1.77;0.70;;;26.00;52.30;;;;;;5011559;28;20433;-84
2022/05/26 10:39:14;;;;;;;2.50;0.80;;;26.00;52.30;;;;;;5012439;28;20419;-84
2022/05/26 10:42:12;;;;;;;1.27;0.80;;;26.00;52.30;;;;;;5029115;28;20425;-85
2022/05/26 10:44:56;;;;;;;1.03;0.80;;;26.00;52.30;;;;;;5011907;28;20510;-84
2022/05/26 10:47:34;;;;;;;1.03;0.77;;;26.00;52.30;;;;;;5011872;28;20775;-84
2022/05/26 10:50:26;;;;;;;1.00;0.70;;;26.00;52.30;;;;;;5011202;28;20465;-84
2022/05/26 10:53:28;;;;;;;0.90;0.70;;;26.00;52.30;;;;;;5016553;28;20502;-84
2022/05/26 10:56:07;;;;;;;0.90;0.70;;;26.00;52.30;;;;;;5008410;28;20498;-86
2022/05/26 10:58:37;;;;;;;1.00;0.70;;;26.00;52.30;;;;;;5010428;28;20505;-84
2022/05/26 11:01:16;;;;;;;1.00;0.87;;;26.00;52.30;;;;;;5029418;28;20392;-84
2022/05/26 11:03:50;;;;;;;1.20;0.80;;;26.00;52.30;;;;;;5012190;28;20450;-84
2022/05/26 11:06:31;;;;;;;1.03;0.70;;;26.10;52.30;;;;;;5028076;28;20492;-84
2022/05/26 11:09:44;;;;;;;1.30;0.90;;;26.00;52.30;;;;;;5011369;28;20826;-83
2022/05/26 11:12:34;;;;;;;1.37;0.90;;;26.10;52.30;;;;;;4996685;28;20529;-84
2022/05/26 11:17:53;;;;;;;1.23;0.80;;;26.00;52.30;;;;;;5027847;28;20403;-84
2022/05/26 11:20:32;;;;;;;1.30;0.80;;;26.00;52.30;;;;;;5013955;28;20434;-84
2022/05/26 11:23:04;;;;;;;1.20;0.80;;;26.00;52.20;;;;;;5032412;28;20379;-84
2022/05/26 11:25:37;;;;;;;0.97;0.70;;;26.00;52.30;;;;;;5031034;28;20392;-84
2022/05/26 11:28:10;;;;;;;2.20;0.80;;;26.00;52.20;;;;;;5031684;28;20423;-84
2022/05/26 11:36:36;;;;;;;1.53;0.97;;;26.00;52.20;;;;;;5031354;28;20430;-84
2022/05/26 11:39:11;;;;;;;1.30;0.80;;;26.00;52.20;;;;;;5032952;28;20933;-84
2022/05/26 11:42:00;;;;;;;1.87;0.87;;;26.00;52.20;;;;;;5032565;28;20496;-84
2022/05/26 11:44:59;;;;;;;2.03;0.90;;;26.00;52.20;;;;;;5016501;28;20419;-84
2022/05/26 11:47:47;;;;;;;2.13;0.90;;;26.00;52.20;;;;;;5030632;28;20423;-83
2022/05/26 11:50:43;;;;;;;1.97;0.83;;;26.00;52.20;;;;;;5031794;28;20426;-83
2022/05/26 11:53:40;;;;;;;3.00;0.90;;;26.00;52.20;;;;;;4987540;28;20433;-84
2022/05/26 11:56:30;;;;;;;3.93;1.20;;;26.00;52.20;;;;;;5030022;28;20515;-84
2022/05/26 11:59:21;;;;;;;1.63;0.80;;;26.00;52.20;;;;;;5032499;28;20463;-84
2022/05/26 12:01:59;;;;;;;1.00;0.80;;;26.00;52.20;;;;;;5015490;28;20797;-84
2022/05/26 12:04:30;;;;;;;1.43;0.97;;;26.00;52.20;;;;;;5029731;28;20403;-84
2022/05/26 12:06:58;;;;;;;1.77;1.00;;;26.00;52.20;;;;;;5019331;28;20427;-84
2022/05/26 12:09:43;;;;;;;1.57;0.90;;;26.00;52.20;;;;;;5047534;28;20495;-84
2022/05/26 12:12:18;;;;;;;1.10;0.80;;;26.00;52.20;;;;;;5031813;28;20550;-83
2022/05/26 12:15:15;;;;;;;0.83;0.70;;;26.00;52.20;;;;;;5048096;28;20414;-84
2022/05/26 12:17:51;;;;;;;1.30;0.83;;;26.00;52.20;;;;;;5020990;28;20426;-83
2022/05/26 12:20:16;;;;;;;1.93;0.93;;;26.00;52.20;;;;;;5012071;28;20419;-83
2022/05/26 12:22:51;;;;;;;1.50;0.93;;;26.00;52.20;;;;;;4995181;28;20806;-83
2022/05/26 12:25:33;;;;;;;0.83;0.70;;;26.00;52.20;;;;;;5004402;28;20181;-83
2022/05/26 12:28:30;;;;;;;1.20;0.80;;;26.00;52.10;;;;;;5014781;28;20422;-83
2022/05/26 12:30:55;;;;;;;1.17;0.80;;;26.00;52.20;;;;;;5014704;28;20463;-82
2022/05/26 12:33:52;;;;;;;1.10;0.77;;;26.00;52.20;;;;;;5018545;28;20412;-83
2022/05/26 12:36:53;;;;;;;1.17;0.90;;;26.00;52.20;;;;;;5013168;28;20172;-83
2022/05/26 12:39:39;;;;;;;1.80;0.70;;;26.00;52.20;;;;;;5005423;28;20419;-85
2022/05/26 12:42:17;;;;;;;3.70;0.87;;;26.00;52.20;;;;;;5025111;28;20533;-82
2022/05/26 12:45:14;;;;;;;1.07;0.80;;;26.00;52.20;;;;;;5031011;28;20491;-85
2022/05/26 12:48:05;;;;;;;1.93;0.80;;;26.00;52.20;;;;;;5017112;28;20419;-85
2022/05/26 12:50:39;;;;;;;1.23;0.70;;;26.00;52.20;;;;;;5015433;28;20428;-85
2022/05/26 12:53:20;;;;;;;1.33;1.00;;;26.00;52.20;;;;;;5003380;28;20423;-85
2022/05/26 12:56:19;;;;;;;1.00;0.70;;;25.90;52.20;;;;;;5040331;28;20482;-85
2022/05/26 12:58:56;;;;;;;1.20;0.80;;;26.00;52.20;;;;;;5011106;28;20426;-85
2022/05/26 13:01:25;;;;;;;1.40;0.90;;;26.00;52.20;;;;;;5024127;28;20975;-84
2022/05/26 13:04:08;;;;;;;1.10;0.80;;;26.00;52.20;;;;;;5016110;28;20434;-85
2022/05/26 13:06:39;;;;;;;1.10;0.70;;;26.00;52.20;;;;;;5027256;28;20423;-85
2022/05/26 13:09:25;;;;;;;1.40;1.00;;;26.00;52.10;;;;;;5015130;28;20430;-85
2022/05/26 13:11:59;;;;;;;1.07;0.90;;;26.00;52.20;;;;;;4957140;29;20485;-85
2022/05/26 13:14:56;;;;;;;1.73;0.80;;;26.00;52.20;;;;;;4953011;29;20411;-85
2022/05/26 13:17:26;;;;;;;0.90;0.70;;;26.00;52.10;;;;;;4950293;29;20415;-84
2022/05/26 13:19:59;;;;;;;1.60;1.10;;;26.00;52.10;;;;;;4950029;29;20419;-83
2022/05/26 13:22:39;;;;;;;1.00;0.80;;;26.00;52.10;;;;;;4946324;29;20431;-83
2022/05/26 13:25:16;;;;;;;1.87;1.00;;;26.00;52.10;;;;;;4935251;29;20432;-83
2022/05/26 13:27:53;;;;;;;1.10;0.80;;;26.00;52.10;;;;;;4947809;29;20945;-84
2022/05/26 13:33:17;;;;;;;1.33;0.70;;;25.90;52.00;;;;;;4949170;29;20450;-83
2022/05/26 13:35:48;;;;;;;1.17;1.00;;;25.90;52.00;;;;;;4949631;29;20415;-83
2022/05/26 13:38:36;;;;;;;1.10;0.80;;;25.90;52.00;;;;;;4934237;29;20415;-83
2022/05/26 13:41:06;;;;;;;1.10;0.90;;;25.90;52.50;;;;;;4935106;29;20446;-83
2022/05/26 13:43:36;;;;;;;1.10;0.70;;;25.90;52.00;;;;;;4950489;29;20431;-83
2022/05/26 13:46:32;;;;;;;0.90;0.70;;;25.90;51.90;;;;;;4933127;29;20430;-84
2022/05/26 13:49:28;;;;;;;2.10;0.80;;;26.00;52.00;;;;;;4956204;28;20425;-83
2022/05/26 13:55:29;;;;;;;1.10;0.70;;;25.90;52.00;;;;;;5010748;28;20376;-82
2022/05/26 13:57:58;;;;;;;1.47;0.90;;;25.90;52.00;;;;;;5010556;28;20451;-83
2022/05/26 14:00:56;;;;;;;1.13;0.80;;;25.90;52.00;;;;;;5009869;28;20400;-83
2022/05/26 14:03:33;;;;;;;1.00;0.90;;;25.90;52.00;;;;;;4916195;29;20962;-83
2022/05/26 14:06:03;;;;;;;1.20;0.90;;;25.90;52.10;;;;;;4931831;29;20415;-82
2022/05/26 14:08:33;;;;;;;3.10;0.90;;;25.90;52.00;;;;;;4916931;29;20432;-84
2022/05/26 14:10:59;;;;;;;1.40;1.00;;;25.90;52.00;;;;;;4915630;29;20467;-84
2022/05/26 14:13:30;;;;;;;1.30;0.70;;;25.90;52.00;;;;;;4917143;29;20511;-83
2022/05/26 14:16:05;;;;;;;2.30;0.70;;;25.90;52.00;;;;;;4916764;29;20408;-85
2022/05/26 14:18:30;;;;;;;1.80;1.20;;;25.90;51.90;;;;;;4911979;29;20430;-86
2022/05/26 14:21:04;;;;;;;1.10;0.80;;;25.90;51.90;;;;;;4927119;29;20419;-86
2022/05/26 14:23:32;;;;;;;2.93;0.70;;;25.90;51.90;;;;;;4912042;29;20698;-86
2022/05/26 14:26:04;;;;;;;1.40;0.80;;;25.90;51.90;;;;;;4926885;29;20416;-86
2022/05/26 14:28:35;;;;;;;1.27;1.00;;;25.90;51.90;;;;;;4911581;29;20420;-86
2022/05/26 14:31:03;;;;;;;1.57;0.70;;;25.90;51.90;;;;;;4911404;29;21072;-86
2022/05/26 14:33:32;;;;;;;1.83;0.70;;;25.90;51.90;;;;;;4911395;29;20412;-86